sensor_id;sensor_type;location;lat;lon;timestamp;pressure;altitude;pressure_sealevel;temperature;humidity
68807;BME280;55800;54.272;18.558;2023-01-25T00:02:23;103137.63;;;-0.09;73.62
68807;BME280;55800;54.272;18.558;2023-01-25T00:04:53;103134.00;;;-0.11;73.72
68807;BME280;55800;54.272;18.558;2023-01-25T00:07:22;103135.16;;;-0.04;73.43
68807;BME280;55800;54.272;18.558;2023-01-25T00:09:52;103131.56;;;-0.06;73.42
68807;BME280;55800;54.272;18.558;2023-01-25T00:12:21;103129.84;;;-0.06;73.32
68807;BME280;55800;54.272;18.558;2023-01-25T00:14:51;103129.78;;;-0.07;73.23
68807;BME280;55800;54.272;18.558;2023-01-25T00:17:21;103136.81;;;-0.06;73.13
68807;BME280;55800;54.272;18.558;2023-01-25T00:19:50;103134.84;;;-0.12;73.16
68807;BME280;55800;54.272;18.558;2023-01-25T00:22:19;103126.91;;;-0.13;73.24
68807;BME280;55800;54.272;18.558;2023-01-25T00:24:48;103116.22;;;-0.18;73.44
68807;BME280;55800;54.272;18.558;2023-01-25T00:27:18;103113.56;;;-0.18;73.40
68807;BME280;55800;54.272;18.558;2023-01-25T00:29:48;103103.88;;;-0.19;73.39
68807;BME280;55800;54.272;18.558;2023-01-25T00:32:40;103112.53;;;-0.21;73.51
68807;BME280;55800;54.272;18.558;2023-01-25T00:35:15;103098.63;;;-0.19;73.22
68807;BME280;55800;54.272;18.558;2023-01-25T00:37:47;103101.00;;;-0.25;73.47
68807;BME280;55800;54.272;18.558;2023-01-25T00:40:18;103102.38;;;-0.34;73.70
68807;BME280;55800;54.272;18.558;2023-01-25T00:42:47;103103.19;;;-0.35;73.76
68807;BME280;55800;54.272;18.558;2023-01-25T00:45:16;103101.00;;;-0.25;73.72
68807;BME280;55800;54.272;18.558;2023-01-25T00:47:47;103089.53;;;-0.27;73.51
68807;BME280;55800;54.272;18.558;2023-01-25T00:50:17;103081.44;;;-0.31;73.26
68807;BME280;55800;54.272;18.558;2023-01-25T00:52:46;103084.94;;;-0.32;73.50
68807;BME280;55800;54.272;18.558;2023-01-25T00:55:16;103080.44;;;-0.35;73.58
68807;BME280;55800;54.272;18.558;2023-01-25T00:57:48;103082.34;;;-0.31;73.47
68807;BME280;55800;54.272;18.558;2023-01-25T01:00:17;103077.91;;;-0.32;73.35
68807;BME280;55800;54.272;18.558;2023-01-25T01:02:48;103075.19;;;-0.35;73.32
68807;BME280;55800;54.272;18.558;2023-01-25T01:05:17;103069.88;;;-0.36;73.35
68807;BME280;55800;54.272;18.558;2023-01-25T01:07:48;103063.75;;;-0.35;73.28
68807;BME280;55800;54.272;18.558;2023-01-25T01:10:18;103061.19;;;-0.34;73.11
68807;BME280;55800;54.272;18.558;2023-01-25T01:12:50;103060.16;;;-0.37;73.10
68807;BME280;55800;54.272;18.558;2023-01-25T01:15:20;103050.38;;;-0.41;73.30
68807;BME280;55800;54.272;18.558;2023-01-25T01:17:50;103054.63;;;-0.45;73.46
68807;BME280;55800;54.272;18.558;2023-01-25T01:20:20;103040.69;;;-0.42;73.18
68807;BME280;55800;54.272;18.558;2023-01-25T01:22:52;103036.03;;;-0.49;73.53
68807;BME280;55800;54.272;18.558;2023-01-25T01:25:22;103044.91;;;-0.46;73.28
68807;BME280;55800;54.272;18.558;2023-01-25T01:27:51;103035.84;;;-0.54;73.51
68807;BME280;55800;54.272;18.558;2023-01-25T01:30:20;103030.63;;;-0.52;73.30
68807;BME280;55800;54.272;18.558;2023-01-25T01:32:52;103022.56;;;-0.57;73.74
68807;BME280;55800;54.272;18.558;2023-01-25T01:35:22;103028.66;;;-0.58;73.52
68807;BME280;55800;54.272;18.558;2023-01-25T01:37:51;103028.75;;;-0.55;73.33
68807;BME280;55800;54.272;18.558;2023-01-25T01:40:20;103034.97;;;-0.53;73.18
68807;BME280;55800;54.272;18.558;2023-01-25T01:42:57;103038.31;;;-0.57;73.31
68807;BME280;55800;54.272;18.558;2023-01-25T01:45:50;103037.97;;;-0.66;73.52
68807;BME280;55800;54.272;18.558;2023-01-25T01:48:34;103040.69;;;-0.63;73.40
68807;BME280;55800;54.272;18.558;2023-01-25T01:51:13;103041.09;;;-0.74;73.66
68807;BME280;55800;54.272;18.558;2023-01-25T01:53:50;103031.84;;;-0.65;73.36
68807;BME280;55800;54.272;18.558;2023-01-25T01:56:25;103030.06;;;-0.66;73.55
68807;BME280;55800;54.272;18.558;2023-01-25T01:59:00;103028.00;;;-0.73;73.61
68807;BME280;55800;54.272;18.558;2023-01-25T02:01:31;103026.28;;;-0.72;73.58
68807;BME280;55800;54.272;18.558;2023-01-25T02:04:02;103021.16;;;-0.69;73.41
68807;BME280;55800;54.272;18.558;2023-01-25T02:06:41;103021.09;;;-0.71;73.43
68807;BME280;55800;54.272;18.558;2023-01-25T02:09:13;103015.97;;;-0.68;73.20
68807;BME280;55800;54.272;18.558;2023-01-25T02:11:44;103012.25;;;-0.73;73.25
68807;BME280;55800;54.272;18.558;2023-01-25T02:14:15;103012.91;;;-0.78;73.34
68807;BME280;55800;54.272;18.558;2023-01-25T02:16:45;103001.34;;;-0.82;73.43
68807;BME280;55800;54.272;18.558;2023-01-25T02:19:22;103004.13;;;-0.79;73.12
68807;BME280;55800;54.272;18.558;2023-01-25T02:21:57;103003.97;;;-0.82;73.18
68807;BME280;55800;54.272;18.558;2023-01-25T02:24:29;103011.59;;;-0.88;73.29
68807;BME280;55800;54.272;18.558;2023-01-25T02:27:02;102996.59;;;-0.91;73.33
68807;BME280;55800;54.272;18.558;2023-01-25T02:29:32;103000.69;;;-0.97;73.48
68807;BME280;55800;54.272;18.558;2023-01-25T02:32:03;102994.44;;;-1.01;73.56
68807;BME280;55800;54.272;18.558;2023-01-25T02:34:33;102991.88;;;-0.99;73.52
68807;BME280;55800;54.272;18.558;2023-01-25T02:37:03;102999.03;;;-0.95;73.41
68807;BME280;55800;54.272;18.558;2023-01-25T02:39:33;102990.97;;;-1.00;73.32
68807;BME280;55800;54.272;18.558;2023-01-25T02:42:03;102981.44;;;-0.98;73.32
68807;BME280;55800;54.272;18.558;2023-01-25T02:44:33;102996.50;;;-0.94;73.14
68807;BME280;55800;54.272;18.558;2023-01-25T02:47:03;102981.50;;;-0.96;73.11
68807;BME280;55800;54.272;18.558;2023-01-25T02:49:34;102986.34;;;-1.05;73.53
68807;BME280;55800;54.272;18.558;2023-01-25T02:52:05;102982.91;;;-1.04;73.43
68807;BME280;55800;54.272;18.558;2023-01-25T02:54:34;102983.16;;;-0.98;73.26
68807;BME280;55800;54.272;18.558;2023-01-25T02:57:07;102972.56;;;-1.00;73.15
68807;BME280;55800;54.272;18.558;2023-01-25T02:59:43;102972.72;;;-0.97;73.20
68807;BME280;55800;54.272;18.558;2023-01-25T03:02:13;102964.34;;;-1.09;73.30
68807;BME280;55800;54.272;18.558;2023-01-25T03:04:44;102970.41;;;-1.10;73.30
68807;BME280;55800;54.272;18.558;2023-01-25T03:07:13;102966.88;;;-1.10;73.41
68807;BME280;55800;54.272;18.558;2023-01-25T03:09:44;102962.41;;;-1.13;73.46
68807;BME280;55800;54.272;18.558;2023-01-25T03:12:14;102958.03;;;-1.12;73.36
68807;BME280;55800;54.272;18.558;2023-01-25T03:14:44;102962.97;;;-1.20;73.64
68807;BME280;55800;54.272;18.558;2023-01-25T03:17:14;102961.06;;;-1.24;73.62
68807;BME280;55800;54.272;18.558;2023-01-25T03:19:43;102962.56;;;-1.29;73.87
68807;BME280;55800;54.272;18.558;2023-01-25T03:22:12;102959.25;;;-1.25;74.03
68807;BME280;55800;54.272;18.558;2023-01-25T03:24:42;102957.53;;;-1.24;73.84
68807;BME280;55800;54.272;18.558;2023-01-25T03:27:11;102947.72;;;-1.28;73.95
68807;BME280;55800;54.272;18.558;2023-01-25T03:33:52;102943.94;;;-1.14;73.62
68807;BME280;55800;54.272;18.558;2023-01-25T03:36:26;102938.25;;;-1.25;73.86
68807;BME280;55800;54.272;18.558;2023-01-25T03:38:55;102940.38;;;-1.16;73.47
68807;BME280;55800;54.272;18.558;2023-01-25T03:41:26;102927.94;;;-1.20;73.54
68807;BME280;55800;54.272;18.558;2023-01-25T03:43:58;102925.22;;;-1.23;73.74
68807;BME280;55800;54.272;18.558;2023-01-25T03:46:28;102928.41;;;-1.30;73.91
68807;BME280;55800;54.272;18.558;2023-01-25T03:48:59;102925.22;;;-1.23;73.86
68807;BME280;55800;54.272;18.558;2023-01-25T03:51:28;102923.59;;;-1.20;73.59
68807;BME280;55800;54.272;18.558;2023-01-25T03:53:57;102924.25;;;-1.25;73.73
68807;BME280;55800;54.272;18.558;2023-01-25T03:56:27;102915.41;;;-1.27;73.90
68807;BME280;55800;54.272;18.558;2023-01-25T03:59:03;102907.47;;;-1.29;73.86
68807;BME280;55800;54.272;18.558;2023-01-25T04:01:33;102902.97;;;-1.31;74.00
68807;BME280;55800;54.272;18.558;2023-01-25T04:04:04;102914.25;;;-1.34;74.16
68807;BME280;55800;54.272;18.558;2023-01-25T04:06:34;102905.59;;;-1.31;73.90
68807;BME280;55800;54.272;18.558;2023-01-25T04:09:03;102895.75;;;-1.37;73.92
68807;BME280;55800;54.272;18.558;2023-01-25T04:11:38;102898.63;;;-1.31;73.70
68807;BME280;55800;54.272;18.558;2023-01-25T04:14:09;102900.34;;;-1.31;73.53
68807;BME280;55800;54.272;18.558;2023-01-25T04:16:45;102902.84;;;-1.34;73.60
68807;BME280;55800;54.272;18.558;2023-01-25T04:19:24;102900.94;;;-1.38;73.60
68807;BME280;55800;54.272;18.558;2023-01-25T04:21:58;102900.09;;;-1.37;73.61
68807;BME280;55800;54.272;18.558;2023-01-25T04:24:33;102885.44;;;-1.32;73.43
68807;BME280;55800;54.272;18.558;2023-01-25T04:27:03;102893.78;;;-1.42;73.52
68807;BME280;55800;54.272;18.558;2023-01-25T04:29:38;102888.44;;;-1.44;73.80
68807;BME280;55800;54.272;18.558;2023-01-25T04:32:14;102886.59;;;-1.46;73.76
68807;BME280;55800;54.272;18.558;2023-01-25T04:34:45;102883.03;;;-1.48;73.85
68807;BME280;55800;54.272;18.558;2023-01-25T04:37:18;102884.94;;;-1.44;73.67
68807;BME280;55800;54.272;18.558;2023-01-25T04:39:55;102878.72;;;-1.46;73.81
68807;BME280;55800;54.272;18.558;2023-01-25T04:42:25;102886.88;;;-1.40;73.66
68807;BME280;55800;54.272;18.558;2023-01-25T04:44:56;102876.47;;;-1.37;73.59
68807;BME280;55800;54.272;18.558;2023-01-25T04:47:26;102875.47;;;-1.41;73.60
68807;BME280;55800;54.272;18.558;2023-01-25T04:49:57;102871.13;;;-1.40;73.48
68807;BME280;55800;54.272;18.558;2023-01-25T04:52:30;102866.63;;;-1.43;73.83
68807;BME280;55800;54.272;18.558;2023-01-25T04:54:59;102869.31;;;-1.41;73.55
68807;BME280;55800;54.272;18.558;2023-01-25T04:57:33;102870.88;;;-1.46;73.79
68807;BME280;55800;54.272;18.558;2023-01-25T05:00:03;102867.28;;;-1.48;73.83
68807;BME280;55800;54.272;18.558;2023-01-25T05:02:33;102872.53;;;-1.48;73.94
68807;BME280;55800;54.272;18.558;2023-01-25T05:05:05;102863.66;;;-1.50;74.05
68807;BME280;55800;54.272;18.558;2023-01-25T05:07:35;102861.75;;;-1.54;74.10
68807;BME280;55800;54.272;18.558;2023-01-25T05:10:05;102861.75;;;-1.54;74.19
68807;BME280;55800;54.272;18.558;2023-01-25T05:12:42;102858.16;;;-1.57;74.21
68807;BME280;55800;54.272;18.558;2023-01-25T05:15:12;102864.25;;;-1.58;74.26
68807;BME280;55800;54.272;18.558;2023-01-25T05:17:42;102855.69;;;-1.53;74.32
68807;BME280;55800;54.272;18.558;2023-01-25T05:20:12;102844.34;;;-1.52;74.23
68807;BME280;55800;54.272;18.558;2023-01-25T05:22:42;102854.03;;;-1.51;74.35
68807;BME280;55800;54.272;18.558;2023-01-25T05:25:11;102844.47;;;-1.49;74.23
68807;BME280;55800;54.272;18.558;2023-01-25T05:27:55;102853.50;;;-1.43;73.97
68807;BME280;55800;54.272;18.558;2023-01-25T05:30:42;102847.25;;;-1.46;74.04
68807;BME280;55800;54.272;18.558;2023-01-25T05:33:24;102847.91;;;-1.50;74.16
68807;BME280;55800;54.272;18.558;2023-01-25T05:35:55;102841.06;;;-1.48;74.32
68807;BME280;55800;54.272;18.558;2023-01-25T05:38:30;102844.75;;;-1.43;74.23
68807;BME280;55800;54.272;18.558;2023-01-25T05:40:59;102840.34;;;-1.44;74.10
68807;BME280;55800;54.272;18.558;2023-01-25T05:43:29;102840.41;;;-1.43;74.33
68807;BME280;55800;54.272;18.558;2023-01-25T05:45:58;102841.34;;;-1.41;73.95
68807;BME280;55800;54.272;18.558;2023-01-25T05:48:29;102828.25;;;-1.41;74.01
68807;BME280;55800;54.272;18.558;2023-01-25T05:51:00;102843.97;;;-1.41;74.04
68807;BME280;55800;54.272;18.558;2023-01-25T05:53:32;102832.72;;;-1.38;73.85
68807;BME280;55800;54.272;18.558;2023-01-25T05:56:04;102837.81;;;-1.41;74.05
68807;BME280;55800;54.272;18.558;2023-01-25T05:58:34;102832.63;;;-1.40;74.01
68807;BME280;55800;54.272;18.558;2023-01-25T06:01:05;102832.47;;;-1.44;74.19
68807;BME280;55800;54.272;18.558;2023-01-25T06:03:45;102836.91;;;-1.42;73.99
68807;BME280;55800;54.272;18.558;2023-01-25T06:06:16;102835.91;;;-1.45;74.24
68807;BME280;55800;54.272;18.558;2023-01-25T06:08:47;102820.38;;;-1.41;74.04
68807;BME280;55800;54.272;18.558;2023-01-25T06:11:19;102823.75;;;-1.43;74.09
68807;BME280;55800;54.272;18.558;2023-01-25T06:13:50;102828.75;;;-1.49;74.26
68807;BME280;55800;54.272;18.558;2023-01-25T06:16:20;102828.88;;;-1.46;74.39
68807;BME280;55800;54.272;18.558;2023-01-25T06:18:59;102825.41;;;-1.45;74.37
68807;BME280;55800;54.272;18.558;2023-01-25T06:21:37;102821.31;;;-1.39;74.19
68807;BME280;55800;54.272;18.558;2023-01-25T06:24:07;102817.75;;;-1.41;74.09
68807;BME280;55800;54.272;18.558;2023-01-25T06:26:36;102818.66;;;-1.40;74.33
68807;BME280;55800;54.272;18.558;2023-01-25T06:29:06;102822.47;;;-1.32;73.92
68807;BME280;55800;54.272;18.558;2023-01-25T06:31:35;102812.53;;;-1.39;74.23
68807;BME280;55800;54.272;18.558;2023-01-25T06:34:05;102823.91;;;-1.40;74.28
68807;BME280;55800;54.272;18.558;2023-01-25T06:36:37;102818.75;;;-1.37;74.22
68807;BME280;55800;54.272;18.558;2023-01-25T06:39:06;102829.63;;;-1.28;73.90
68807;BME280;55800;54.272;18.558;2023-01-25T06:41:35;102819.13;;;-1.28;73.65
68807;BME280;55800;54.272;18.558;2023-01-25T06:44:05;102817.22;;;-1.32;74.06
68807;BME280;55800;54.272;18.558;2023-01-25T06:46:34;102806.59;;;-1.35;74.05
68807;BME280;55800;54.272;18.558;2023-01-25T06:49:03;102807.88;;;-1.26;73.82
68807;BME280;55800;54.272;18.558;2023-01-25T06:51:33;102802.38;;;-1.32;73.90
68807;BME280;55800;54.272;18.558;2023-01-25T06:54:04;102806.34;;;-1.41;74.39
68807;BME280;55800;54.272;18.558;2023-01-25T06:56:33;102805.72;;;-1.36;74.42
68807;BME280;55800;54.272;18.558;2023-01-25T06:59:02;102803.25;;;-1.31;74.00
68807;BME280;55800;54.272;18.558;2023-01-25T07:01:31;102806.72;;;-1.32;74.08
68807;BME280;55800;54.272;18.558;2023-01-25T07:04:01;102803.16;;;-1.34;74.24
68807;BME280;55800;54.272;18.558;2023-01-25T07:06:31;102802.50;;;-1.29;74.29
68807;BME280;55800;54.272;18.558;2023-01-25T07:09:05;102808.25;;;-1.37;74.40
68807;BME280;55800;54.272;18.558;2023-01-25T07:11:35;102808.16;;;-1.40;74.35
68807;BME280;55800;54.272;18.558;2023-01-25T07:14:04;102807.31;;;-1.39;74.49
68807;BME280;55800;54.272;18.558;2023-01-25T07:16:34;102800.53;;;-1.34;74.52
68807;BME280;55800;54.272;18.558;2023-01-25T07:19:06;102804.88;;;-1.35;74.47
68807;BME280;55800;54.272;18.558;2023-01-25T07:21:35;102796.00;;;-1.38;74.43
68807;BME280;55800;54.272;18.558;2023-01-25T07:24:06;102796.09;;;-1.35;74.60
68807;BME280;55800;54.272;18.558;2023-01-25T07:26:36;102804.81;;;-1.36;74.65
68807;BME280;55800;54.272;18.558;2023-01-25T07:29:06;102810.78;;;-1.40;74.84
68807;BME280;55800;54.272;18.558;2023-01-25T07:31:38;102810.13;;;-1.35;74.76
68807;BME280;55800;54.272;18.558;2023-01-25T07:34:09;102807.38;;;-1.38;74.90
68807;BME280;55800;54.272;18.558;2023-01-25T07:36:40;102803.00;;;-1.37;74.65
68807;BME280;55800;54.272;18.558;2023-01-25T07:39:12;102804.94;;;-1.33;74.67
68807;BME280;55800;54.272;18.558;2023-01-25T07:41:41;102798.00;;;-1.31;74.87
68807;BME280;55800;54.272;18.558;2023-01-25T07:44:13;102801.59;;;-1.29;74.63
68807;BME280;55800;54.272;18.558;2023-01-25T07:46:51;102793.91;;;-1.25;74.66
68807;BME280;55800;54.272;18.558;2023-01-25T07:49:21;102785.16;;;-1.25;74.88
68807;BME280;55800;54.272;18.558;2023-01-25T07:51:50;102789.81;;;-1.18;74.65
68807;BME280;55800;54.272;18.558;2023-01-25T07:54:21;102782.88;;;-1.16;74.51
68807;BME280;55800;54.272;18.558;2023-01-25T07:56:50;102782.88;;;-1.16;74.57
68807;BME280;55800;54.272;18.558;2023-01-25T07:59:20;102773.28;;;-1.16;74.77
68807;BME280;55800;54.272;18.558;2023-01-25T08:01:49;102769.13;;;-1.11;74.64
68807;BME280;55800;54.272;18.558;2023-01-25T08:04:18;102762.13;;;-1.10;74.69
68807;BME280;55800;54.272;18.558;2023-01-25T08:06:47;102769.19;;;-1.09;74.77
68807;BME280;55800;54.272;18.558;2023-01-25T08:09:17;102762.31;;;-1.06;74.55
68807;BME280;55800;54.272;18.558;2023-01-25T08:11:48;102766.50;;;-1.11;74.67
68807;BME280;55800;54.272;18.558;2023-01-25T08:14:18;102764.84;;;-1.09;74.71
68807;BME280;55800;54.272;18.558;2023-01-25T08:16:47;102754.34;;;-1.09;74.70
68807;BME280;55800;54.272;18.558;2023-01-25T08:19:16;102754.38;;;-1.07;74.79
68807;BME280;55800;54.272;18.558;2023-01-25T08:21:46;102747.50;;;-1.04;74.73
68807;BME280;55800;54.272;18.558;2023-01-25T08:24:16;102758.34;;;-0.96;74.42
68807;BME280;55800;54.272;18.558;2023-01-25T08:26:48;102755.88;;;-0.92;74.14
68807;BME280;55800;54.272;18.558;2023-01-25T08:29:18;102754.03;;;-0.94;74.31
68807;BME280;55800;54.272;18.558;2023-01-25T08:31:47;102746.88;;;-0.98;74.65
68807;BME280;55800;54.272;18.558;2023-01-25T08:34:17;102749.91;;;-0.88;74.30
68807;BME280;55800;54.272;18.558;2023-01-25T08:36:45;102749.88;;;-0.89;74.48
68807;BME280;55800;54.272;18.558;2023-01-25T08:39:15;102749.00;;;-0.88;74.50
68807;BME280;55800;54.272;18.558;2023-01-25T08:41:44;102753.34;;;-0.89;74.65
68807;BME280;55800;54.272;18.558;2023-01-25T08:44:15;102749.06;;;-0.87;74.56
68807;BME280;55800;54.272;18.558;2023-01-25T08:46:49;102747.56;;;-0.80;74.51
68807;BME280;55800;54.272;18.558;2023-01-25T08:49:18;102756.28;;;-0.81;74.55
68807;BME280;55800;54.272;18.558;2023-01-25T08:51:48;102748.50;;;-0.78;74.72
68807;BME280;55800;54.272;18.558;2023-01-25T08:54:17;102738.19;;;-0.73;74.61
68807;BME280;55800;54.272;18.558;2023-01-25T08:56:46;102737.75;;;-0.62;74.33
68807;BME280;55800;54.272;18.558;2023-01-25T08:59:17;102735.00;;;-0.65;74.41
68807;BME280;55800;54.272;18.558;2023-01-25T09:01:46;102736.91;;;-0.61;74.42
68807;BME280;55800;54.272;18.558;2023-01-25T09:04:15;102729.16;;;-0.58;74.26
68807;BME280;55800;54.272;18.558;2023-01-25T09:06:44;102726.56;;;-0.56;74.18
68807;BME280;55800;54.272;18.558;2023-01-25T09:09:14;102720.53;;;-0.54;74.18
68807;BME280;55800;54.272;18.558;2023-01-25T09:11:43;102731.41;;;-0.45;74.07
68807;BME280;55800;54.272;18.558;2023-01-25T09:14:12;102727.75;;;-0.48;74.01
68807;BME280;55800;54.272;18.558;2023-01-25T09:16:43;102722.66;;;-0.44;73.79
68807;BME280;55800;54.272;18.558;2023-01-25T09:19:12;102714.03;;;-0.40;73.83
68807;BME280;55800;54.272;18.558;2023-01-25T09:21:42;102709.66;;;-0.41;73.94
68807;BME280;55800;54.272;18.558;2023-01-25T09:24:11;102717.53;;;-0.41;74.03
68807;BME280;55800;54.272;18.558;2023-01-25T09:26:41;102705.25;;;-0.40;73.94
68807;BME280;55800;54.272;18.558;2023-01-25T09:29:23;102708.91;;;-0.37;73.71
68807;BME280;55800;54.272;18.558;2023-01-25T09:31:53;102705.53;;;-0.33;73.53
68807;BME280;55800;54.272;18.558;2023-01-25T09:34:44;102712.56;;;-0.32;73.73
68807;BME280;55800;54.272;18.558;2023-01-25T09:37:14;102709.06;;;-0.32;73.66
68807;BME280;55800;54.272;18.558;2023-01-25T09:39:43;102702.19;;;-0.29;73.48
68807;BME280;55800;54.272;18.558;2023-01-25T09:42:40;102702.19;;;-0.29;73.44
68807;BME280;55800;54.272;18.558;2023-01-25T09:45:23;102709.13;;;-0.31;73.58
68807;BME280;55800;54.272;18.558;2023-01-25T09:48:03;102700.66;;;-0.22;73.43
68807;BME280;55800;54.272;18.558;2023-01-25T09:50:35;102690.19;;;-0.21;73.30
68807;BME280;55800;54.272;18.558;2023-01-25T09:53:23;102681.47;;;-0.20;73.38
68807;BME280;55800;54.272;18.558;2023-01-25T09:55:57;102682.06;;;-0.28;73.78
68807;BME280;55800;54.272;18.558;2023-01-25T09:58:31;102672.38;;;-0.29;73.70
68807;BME280;55800;54.272;18.558;2023-01-25T10:01:37;102662.22;;;-0.19;73.59
68807;BME280;55800;54.272;18.558;2023-01-25T10:04:15;102664.75;;;-0.22;73.74
68807;BME280;55800;54.272;18.558;2023-01-25T10:06:51;102664.06;;;-0.16;73.74
68807;BME280;55800;54.272;18.558;2023-01-25T10:09:36;102641.19;;;-0.19;73.77
68807;BME280;55800;54.272;18.558;2023-01-25T10:12:15;102638.75;;;-0.13;73.83
68807;BME280;55800;54.272;18.558;2023-01-25T10:14:47;102634.56;;;-0.08;73.70
68807;BME280;55800;54.272;18.558;2023-01-25T10:17:26;102634.59;;;-0.06;73.66
68807;BME280;55800;54.272;18.558;2023-01-25T10:20:08;102627.75;;;-0.03;73.64
68807;BME280;55800;54.272;18.558;2023-01-25T10:22:45;102612.94;;;0.01;73.66
68807;BME280;55800;54.272;18.558;2023-01-25T10:25:27;102601.00;;;0.11;73.43
68807;BME280;55800;54.272;18.558;2023-01-25T10:28:13;102603.63;;;0.11;73.54
68807;BME280;55800;54.272;18.558;2023-01-25T10:30:52;102604.47;;;0.10;73.85
68807;BME280;55800;54.272;18.558;2023-01-25T10:33:23;102603.63;;;0.11;73.87
68807;BME280;55800;54.272;18.558;2023-01-25T10:35:56;102598.44;;;0.14;73.57
68807;BME280;55800;54.272;18.558;2023-01-25T10:38:31;102600.50;;;0.24;73.71
68807;BME280;55800;54.272;18.558;2023-01-25T10:41:06;102594.31;;;0.22;73.46
68807;BME280;55800;54.272;18.558;2023-01-25T10:43:38;102587.56;;;0.30;73.50
68807;BME280;55800;54.272;18.558;2023-01-25T10:46:16;102578.84;;;0.31;73.31
68807;BME280;55800;54.272;18.558;2023-01-25T10:48:47;102578.00;;;0.32;73.43
68807;BME280;55800;54.272;18.558;2023-01-25T10:51:39;102567.66;;;0.38;73.24
68807;BME280;55800;54.272;18.558;2023-01-25T10:54:14;102567.72;;;0.41;73.50
68807;BME280;55800;54.272;18.558;2023-01-25T10:56:44;102565.38;;;0.50;73.39
68807;BME280;55800;54.272;18.558;2023-01-25T10:59:17;102558.47;;;0.53;73.32
68807;BME280;55800;54.272;18.558;2023-01-25T11:01:48;102550.63;;;0.55;73.13
68807;BME280;55800;54.272;18.558;2023-01-25T11:04:32;102543.75;;;0.60;72.81
68807;BME280;55800;54.272;18.558;2023-01-25T11:07:04;102538.56;;;0.61;72.72
68807;BME280;55800;54.272;18.558;2023-01-25T11:09:36;102535.97;;;0.64;72.34
68807;BME280;55800;54.272;18.558;2023-01-25T11:12:15;102537.81;;;0.67;72.57
68807;BME280;55800;54.272;18.558;2023-01-25T11:14:47;102531.63;;;0.65;72.26
68807;BME280;55800;54.272;18.558;2023-01-25T11:17:27;102532.28;;;0.58;72.03
68807;BME280;55800;54.272;18.558;2023-01-25T11:20:22;102527.16;;;0.62;72.27
68807;BME280;55800;54.272;18.558;2023-01-25T11:22:55;102525.13;;;0.52;72.58
68807;BME280;55800;54.272;18.558;2023-01-25T11:25:27;102512.97;;;0.57;72.73
68807;BME280;55800;54.272;18.558;2023-01-25T11:28:17;102521.72;;;0.56;72.40
68807;BME280;55800;54.272;18.558;2023-01-25T11:30:47;102508.69;;;0.61;72.34
68807;BME280;55800;54.272;18.558;2023-01-25T11:33:19;102503.34;;;0.58;72.64
68807;BME280;55800;54.272;18.558;2023-01-25T11:36:12;102496.19;;;0.54;72.86
68807;BME280;55800;54.272;18.558;2023-01-25T11:38:54;102496.47;;;0.63;72.51
68807;BME280;55800;54.272;18.558;2023-01-25T11:41:35;102484.09;;;0.60;72.63
68807;BME280;55800;54.272;18.558;2023-01-25T11:44:21;102471.13;;;0.66;71.90
68807;BME280;55800;54.272;18.558;2023-01-25T11:47:01;102457.03;;;0.64;72.25
68807;BME280;55800;54.272;18.558;2023-01-25T11:49:47;102454.34;;;0.63;72.31
68807;BME280;55800;54.272;18.558;2023-01-25T11:52:30;102457.06;;;0.66;72.04
68807;BME280;55800;54.272;18.558;2023-01-25T11:55:23;102439.56;;;0.68;72.05
68807;BME280;55800;54.272;18.558;2023-01-25T11:58:03;102442.16;;;0.66;72.14
68807;BME280;55800;54.272;18.558;2023-01-25T12:00:41;102436.88;;;0.65;72.07
68807;BME280;55800;54.272;18.558;2023-01-25T12:06:36;102431.75;;;0.71;72.25
68807;BME280;55800;54.272;18.558;2023-01-25T12:09:30;102409.91;;;0.73;71.77
68807;BME280;55800;54.272;18.558;2023-01-25T12:12:13;102413.31;;;0.69;72.56
68807;BME280;55800;54.272;18.558;2023-01-25T12:17:56;102407.13;;;0.69;72.90
68807;BME280;55800;54.272;18.558;2023-01-25T12:20:38;102402.03;;;0.75;72.66
68807;BME280;55800;54.272;18.558;2023-01-25T12:23:31;102388.97;;;0.78;72.64
68807;BME280;55800;54.272;18.558;2023-01-25T12:26:21;102377.56;;;0.79;72.63
68807;BME280;55800;54.272;18.558;2023-01-25T12:29:03;102371.47;;;0.80;72.88
68807;BME280;55800;54.272;18.558;2023-01-25T12:31:36;102368.81;;;0.80;72.77
68807;BME280;55800;54.272;18.558;2023-01-25T12:34:12;102367.19;;;0.85;72.59
68807;BME280;55800;54.272;18.558;2023-01-25T12:36:45;102357.69;;;0.92;72.48
68807;BME280;55800;54.272;18.558;2023-01-25T12:39:19;102354.94;;;0.87;72.20
68807;BME280;55800;54.272;18.558;2023-01-25T12:41:54;102356.88;;;0.94;71.67
68807;BME280;55800;54.272;18.558;2023-01-25T12:44:32;102352.53;;;0.95;72.25
68807;BME280;55800;54.272;18.558;2023-01-25T12:47:09;102354.09;;;0.88;72.22
68807;BME280;55800;54.272;18.558;2023-01-25T12:49:45;102345.31;;;0.88;72.50
68807;BME280;55800;54.272;18.558;2023-01-25T12:52:21;102344.34;;;0.84;72.94
68807;BME280;55800;54.272;18.558;2023-01-25T12:54:53;102343.47;;;0.84;72.71
68807;BME280;55800;54.272;18.558;2023-01-25T12:57:28;102335.59;;;0.85;72.82
68807;BME280;55800;54.272;18.558;2023-01-25T13:00:09;102333.97;;;0.90;72.66
68807;BME280;55800;54.272;18.558;2023-01-25T13:03:06;102330.56;;;0.94;72.37
68807;BME280;55800;54.272;18.558;2023-01-25T13:05:43;102324.28;;;0.89;72.85
68807;BME280;55800;54.272;18.558;2023-01-25T13:08:23;102320.78;;;0.89;72.79
68807;BME280;55800;54.272;18.558;2023-01-25T13:11:08;102314.69;;;0.91;72.38
68807;BME280;55800;54.272;18.558;2023-01-25T13:13:39;102322.59;;;0.91;72.36
68807;BME280;55800;54.272;18.558;2023-01-25T13:16:30;102326.06;;;0.90;72.74
68807;BME280;55800;54.272;18.558;2023-01-25T13:19:02;102323.28;;;0.84;73.07
68807;BME280;55800;54.272;18.558;2023-01-25T13:21:44;102319.72;;;0.82;73.18
68807;BME280;55800;54.272;18.558;2023-01-25T13:24:16;102310.97;;;0.83;73.29
68807;BME280;55800;54.272;18.558;2023-01-25T13:27:01;102314.53;;;0.85;73.22